createdAt,value
2023-01-17T00:00:01.878Z,96808.16
2023-01-17T00:02:31.110Z,96812.41
2023-01-17T00:05:16.761Z,96813.97
2023-01-17T00:08:01.831Z,96813.97
2023-01-17T00:10:28.934Z,96827.06
2023-01-17T00:12:58.287Z,96832.63
2023-01-17T00:15:26.646Z,96832.13
2023-01-17T00:17:53.896Z,96831.03
2023-01-17T00:20:42.604Z,96832.63
2023-01-17T00:23:33.670Z,96829.13
2023-01-17T00:26:03.361Z,96830.50
2023-01-17T00:28:38.464Z,96817.66
2023-01-17T00:31:06.832Z,96824.09
2023-01-17T00:33:33.598Z,96829.41
2023-01-17T00:36:00.651Z,96828.31
2023-01-17T00:38:30.308Z,96837.88
2023-01-17T00:41:02.745Z,96838.44
2023-01-17T00:43:48.677Z,96847.81
2023-01-17T00:46:34.389Z,96843.78
2023-01-17T00:49:19.900Z,96842.19
2023-01-17T00:52:05.158Z,96845.13
2023-01-17T00:54:50.412Z,96845.94
2023-01-17T00:57:35.878Z,96853.44
2023-01-17T01:00:20.790Z,96861.94
2023-01-17T01:03:06.113Z,96851.03
2023-01-17T01:05:51.084Z,96866.78
2023-01-17T01:08:42.776Z,96855.00
2023-01-17T01:11:34.164Z,96851.25
2023-01-17T01:14:20.308Z,96856.16
2023-01-17T01:17:06.328Z,96860.13
2023-01-17T01:19:51.787Z,96857.75
2023-01-17T01:22:37.009Z,96863.34
2023-01-17T01:25:22.642Z,96878.63
2023-01-17T01:28:07.852Z,96874.00
2023-01-17T01:30:52.789Z,96878.03
2023-01-17T01:33:19.267Z,96887.69
2023-01-17T01:35:54.252Z,96883.06
2023-01-17T01:38:23.599Z,96886.03
2023-01-17T01:40:52.447Z,96883.94
2023-01-17T01:43:39.134Z,96894.56
2023-01-17T01:46:06.306Z,96899.66
2023-01-17T01:48:37.130Z,96908.97
2023-01-17T01:51:08.236Z,96894.56
2023-01-17T01:53:37.761Z,96899.44
2023-01-17T01:56:08.421Z,96906.59
2023-01-17T01:58:37.934Z,96906.34
2023-01-17T02:01:05.649Z,96911.97
2023-01-17T02:03:33.444Z,96912.50
2023-01-17T02:06:08.653Z,96929.81
2023-01-17T02:08:36.153Z,96924.75
2023-01-17T02:11:03.278Z,96951.19
2023-01-17T02:13:31.479Z,96943.75
2023-01-17T02:16:04.289Z,96940.75
2023-01-17T02:18:54.001Z,96937.25
2023-01-17T02:21:24.584Z,96937.56
2023-01-17T02:24:17.198Z,96944.19
2023-01-17T02:27:02.080Z,96951.69
2023-01-17T02:29:47.583Z,96945.28
2023-01-17T02:32:41.187Z,96970.63
2023-01-17T02:35:15.922Z,96957.88
2023-01-17T02:37:56.414Z,96968.28
2023-01-17T02:40:28.586Z,96964.84
2023-01-17T02:43:05.725Z,96962.97
2023-01-17T02:45:32.251Z,96972.59
2023-01-17T02:47:58.813Z,96970.50
2023-01-17T02:50:34.330Z,96969.94
2023-01-17T02:53:13.970Z,96976.00
2023-01-17T02:55:49.597Z,96997.66
2023-01-17T02:58:43.489Z,96997.63
2023-01-17T03:01:10.107Z,97004.34
2023-01-17T03:04:19.290Z,97006.16
2023-01-17T03:06:58.254Z,97004.44
2023-01-17T03:09:25.656Z,97009.41
2023-01-17T03:11:52.557Z,97022.50
2023-01-17T03:14:19.106Z,97023.56
2023-01-17T03:16:45.874Z,97032.09
2023-01-17T03:19:14.763Z,97028.72
2023-01-17T03:21:41.313Z,97020.09
2023-01-17T03:24:08.056Z,97033.41
2023-01-17T03:26:34.735Z,97029.00
2023-01-17T03:29:01.282Z,97040.31
2023-01-17T03:31:27.735Z,97038.19
2023-01-17T03:33:54.300Z,97034.97
2023-01-17T03:36:20.807Z,97043.50
2023-01-17T03:38:47.344Z,97043.50
2023-01-17T03:41:13.910Z,97043.50
2023-01-17T03:43:40.532Z,97046.69
2023-01-17T03:46:17.325Z,97046.69
2023-01-17T03:48:43.801Z,97044.00
2023-01-17T03:51:10.362Z,97053.09
2023-01-17T03:53:36.861Z,97050.94
2023-01-17T03:56:03.784Z,97042.66
2023-01-17T03:58:30.244Z,97057.75
2023-01-17T04:00:56.927Z,97062.66
2023-01-17T04:03:23.514Z,97044.94
2023-01-17T04:05:50.103Z,97058.13
2023-01-17T04:08:16.972Z,97060.00
2023-01-17T04:10:43.696Z,97063.19
2023-01-17T04:13:10.242Z,97072.81
2023-01-17T04:15:36.817Z,97080.53
2023-01-17T04:18:05.184Z,97072.53
2023-01-17T04:20:37.181Z,97100.00
2023-01-17T04:23:04.508Z,97088.31
2023-01-17T04:25:31.306Z,97090.47
2023-01-17T04:27:58.301Z,97101.53
2023-01-17T04:30:25.008Z,97099.50
2023-01-17T04:32:51.676Z,97087.53
2023-01-17T04:35:19.617Z,97099.53
2023-01-17T04:37:47.187Z,97107.00
2023-01-17T04:40:14.522Z,97104.59
2023-01-17T04:42:41.291Z,97114.53
2023-01-17T04:45:07.964Z,97102.13
2023-01-17T04:47:34.585Z,97111.03
2023-01-17T04:50:01.362Z,97131.28
2023-01-17T04:52:27.833Z,97115.72
2023-01-17T04:54:54.390Z,97124.63
2023-01-17T04:57:20.989Z,97131.03
2023-01-17T04:59:47.541Z,97116.13
2023-01-17T05:02:15.036Z,97125.44
2023-01-17T05:04:41.556Z,97129.44
2023-01-17T05:07:08.366Z,97116.63
2023-01-17T05:09:35.058Z,97133.31
2023-01-17T05:12:02.007Z,97161.72
2023-01-17T05:14:28.518Z,97156.59
2023-01-17T05:16:58.647Z,97149.16
2023-01-17T05:19:26.872Z,97160.09
2023-01-17T05:21:53.517Z,97156.59
2023-01-17T05:24:20.064Z,97169.41
2023-01-17T05:26:54.913Z,97189.16
2023-01-17T05:29:22.027Z,97182.47
2023-01-17T05:31:48.600Z,97195.53
2023-01-17T05:34:15.186Z,97192.56
2023-01-17T05:36:41.663Z,97204.06
2023-01-17T05:39:08.289Z,97215.78
2023-01-17T05:41:34.757Z,97232.56
2023-01-17T05:44:01.313Z,97243.78
2023-01-17T05:46:27.827Z,97242.72
2023-01-17T05:48:54.352Z,97251.78
2023-01-17T05:51:20.832Z,97255.53
2023-01-17T05:53:47.339Z,97263.78
2023-01-17T05:56:14.207Z,97270.47
2023-01-17T05:58:40.726Z,97282.66
2023-01-17T06:01:07.317Z,97295.25
2023-01-17T06:03:33.860Z,97285.69
2023-01-17T06:06:00.394Z,97295.28
2023-01-17T06:08:26.884Z,97307.56
2023-01-17T06:10:53.410Z,97303.03
2023-01-17T06:13:22.035Z,97299.03
2023-01-17T06:15:48.998Z,97315.56
2023-01-17T06:18:17.736Z,97311.81
2023-01-17T06:20:44.909Z,97315.56
2023-01-17T06:23:13.939Z,97324.88
2023-01-17T06:25:45.633Z,97327.25
2023-01-17T06:28:14.529Z,97339.47
2023-01-17T06:30:41.541Z,97351.72
2023-01-17T06:33:08.021Z,97357.03
2023-01-17T06:35:34.555Z,97366.06
2023-01-17T06:38:01.156Z,97360.19
2023-01-17T06:40:29.284Z,97372.16
2023-01-17T06:43:03.863Z,97389.97
2023-01-17T06:45:32.267Z,97401.66
2023-01-17T06:48:04.139Z,97396.34
2023-01-17T06:50:31.836Z,97402.13
2023-01-17T06:53:00.990Z,97402.63
2023-01-17T06:55:29.469Z,97406.34
2023-01-17T06:57:57.434Z,97419.66
2023-01-17T07:00:24.287Z,97423.38
2023-01-17T07:02:51.838Z,97434.50
2023-01-17T07:05:19.006Z,97432.38
2023-01-17T07:07:46.110Z,97439.81
2023-01-17T07:10:14.158Z,97449.38
2023-01-17T07:12:41.122Z,97450.94
2023-01-17T07:15:08.325Z,97462.09
2023-01-17T07:17:35.407Z,97463.16
2023-01-17T07:20:01.977Z,97461.03
2023-01-17T07:22:28.475Z,97462.63
2023-01-17T07:24:58.639Z,97464.69
2023-01-17T07:27:26.310Z,97473.22
2023-01-17T07:29:54.294Z,97468.44
2023-01-17T07:32:21.001Z,97474.00
2023-01-17T07:34:47.549Z,97484.38
2023-01-17T07:37:15.284Z,97487.31
2023-01-17T07:39:42.196Z,97489.13
2023-01-17T07:42:09.309Z,97487.00
2023-01-17T07:44:36.050Z,97495.81
2023-01-17T07:47:02.689Z,97497.66
2023-01-17T07:49:29.196Z,97493.94
2023-01-17T07:51:55.703Z,97501.66
2023-01-17T07:54:22.252Z,97503.53
2023-01-17T07:56:49.090Z,97509.91
2023-01-17T07:59:15.577Z,97509.53
2023-01-17T08:01:42.228Z,97521.63
2023-01-17T08:04:09.498Z,97523.41
2023-01-17T08:06:37.905Z,97513.94
2023-01-17T08:09:04.372Z,97527.47
2023-01-17T08:11:30.870Z,97526.94
2023-01-17T08:13:59.481Z,97535.75
2023-01-17T08:16:28.037Z,97542.41
2023-01-17T08:18:55.447Z,97541.84
2023-01-17T08:21:24.406Z,97549.88
2023-01-17T08:23:52.287Z,97554.16
2023-01-17T08:26:23.493Z,97555.16
2023-01-17T08:29:00.622Z,97560.03
2023-01-17T08:31:33.158Z,97559.25
2023-01-17T08:33:59.922Z,97565.31
2023-01-17T08:36:27.742Z,97571.34
2023-01-17T08:38:55.495Z,97571.78
2023-01-17T08:41:23.811Z,97586.13
2023-01-17T08:43:51.835Z,97580.81
2023-01-17T08:46:19.004Z,97582.41
2023-01-17T08:48:45.845Z,97600.50
2023-01-17T08:51:12.285Z,97585.00
2023-01-17T08:53:38.840Z,97578.44
2023-01-17T08:56:05.827Z,97603.22
2023-01-17T08:58:33.003Z,97582.38
2023-01-17T09:01:03.428Z,97580.81
2023-01-17T09:03:31.485Z,97589.09
2023-01-17T09:06:06.126Z,97587.00
2023-01-17T09:08:33.037Z,97586.13
2023-01-17T09:11:03.854Z,97583.47
2023-01-17T09:13:30.326Z,97593.88
2023-01-17T09:15:57.985Z,97586.13
2023-01-17T09:18:28.610Z,97590.38
2023-01-17T09:20:59.104Z,97595.22
2023-01-17T09:23:27.876Z,97593.66
2023-01-17T09:25:59.904Z,97597.69
2023-01-17T09:28:27.449Z,97595.84
2023-01-17T09:30:54.749Z,97593.53
2023-01-17T09:33:23.258Z,97619.41
2023-01-17T09:35:49.943Z,97618.97
2023-01-17T09:38:17.050Z,97603.88
2023-01-17T09:40:49.000Z,97605.03
2023-01-17T09:43:40.042Z,97617.09
2023-01-17T09:46:22.549Z,97628.34
2023-01-17T09:49:02.010Z,97626.25
2023-01-17T09:51:28.670Z,97614.56
2023-01-17T09:53:55.487Z,97626.06
2023-01-17T09:56:29.528Z,97627.75
2023-01-17T09:59:18.579Z,97635.50
2023-01-17T10:02:02.287Z,97641.38
2023-01-17T10:04:34.977Z,97644.34
2023-01-17T10:07:07.808Z,97652.66
2023-01-17T10:09:43.685Z,97653.22
2023-01-17T10:12:31.192Z,97650.31
2023-01-17T10:15:27.915Z,97657.28
2023-01-17T10:18:05.411Z,97653.53
2023-01-17T10:20:40.937Z,97659.94
2023-01-17T10:23:13.471Z,97657.56
2023-01-17T10:25:51.289Z,97660.25
2023-01-17T10:28:48.764Z,97660.00
2023-01-17T10:31:23.261Z,97664.50
2023-01-17T10:34:00.643Z,97664.53
2023-01-17T10:36:34.999Z,97665.59
2023-01-17T10:39:23.188Z,97672.56
2023-01-17T10:41:55.672Z,97661.84
2023-01-17T10:44:41.216Z,97674.91
2023-01-17T10:47:10.766Z,97663.16
2023-01-17T10:49:45.053Z,97645.25
2023-01-17T10:52:29.776Z,97643.13
2023-01-17T10:55:18.086Z,97655.38
2023-01-17T10:57:47.551Z,97650.59
2023-01-17T11:00:28.860Z,97650.03
2023-01-17T11:02:55.571Z,97647.91
2023-01-17T11:05:31.921Z,97655.34
2023-01-17T11:08:05.648Z,97652.13
2023-01-17T11:10:49.920Z,97652.66
2023-01-17T11:13:19.355Z,97651.06
2023-01-17T11:15:49.897Z,97642.75
2023-01-17T11:18:19.523Z,97653.72
2023-01-17T11:20:46.947Z,97657.47
2023-01-17T11:23:24.499Z,97661.22
2023-01-17T11:25:58.198Z,97663.34
2023-01-17T11:28:34.196Z,97660.69
2023-01-17T11:31:24.139Z,97669.22
2023-01-17T11:34:05.282Z,97676.97
2023-01-17T11:36:32.640Z,97674.56
2023-01-17T11:41:28.051Z,97672.66
2023-01-17T11:43:57.356Z,97670.25
2023-01-17T11:46:24.594Z,97668.13
2023-01-17T11:48:56.013Z,97678.78
2023-01-17T11:51:25.342Z,97669.41
2023-01-17T11:53:53.739Z,97675.56
2023-01-17T11:56:28.033Z,97665.66
2023-01-17T11:59:09.573Z,97666.16
2023-01-17T12:01:58.093Z,97663.25
2023-01-17T12:04:37.356Z,97678.47
2023-01-17T12:07:27.092Z,97676.63
2023-01-17T12:10:00.636Z,97676.06
2023-01-17T12:13:00.813Z,97691.59
2023-01-17T12:15:45.935Z,97679.81
2023-01-17T12:18:27.148Z,97680.38
2023-01-17T12:21:04.152Z,97669.66
2023-01-17T12:23:45.335Z,97668.84
2023-01-17T12:26:26.582Z,97665.38
2023-01-17T12:29:02.762Z,97661.84
2023-01-17T12:31:46.986Z,97668.03
2023-01-17T12:34:23.586Z,97663.72
2023-01-17T12:36:58.509Z,97667.94
2023-01-17T12:39:33.714Z,97672.22
2023-01-17T12:42:08.953Z,97673.81
2023-01-17T12:44:59.155Z,97688.25
2023-01-17T12:47:25.797Z,97681.31
2023-01-17T12:50:06.658Z,97683.41
2023-01-17T12:52:48.462Z,97690.91
2023-01-17T12:55:21.061Z,97671.91
2023-01-17T12:58:01.218Z,97683.66
2023-01-17T13:00:30.065Z,97681.81
2023-01-17T13:03:07.689Z,97692.75
2023-01-17T13:05:38.368Z,97697.91
2023-01-17T13:08:42.394Z,97686.88
2023-01-17T13:11:21.239Z,97683.41
2023-01-17T13:13:51.479Z,97678.63
2023-01-17T13:16:24.377Z,97682.91
2023-01-17T13:18:52.261Z,97684.00
2023-01-17T13:21:21.734Z,97689.38
2023-01-17T13:23:59.105Z,97692.84
2023-01-17T13:26:44.348Z,97687.09
2023-01-17T13:29:32.719Z,97685.56
2023-01-17T13:32:20.806Z,97700.84
2023-01-17T13:35:12.058Z,97699.72
2023-01-17T13:37:55.893Z,97710.19
2023-01-17T13:40:29.872Z,97710.72
2023-01-17T13:43:03.479Z,97716.06
2023-01-17T13:45:35.898Z,97724.38
2023-01-17T13:48:14.695Z,97716.81
2023-01-17T13:50:41.195Z,97723.25
2023-01-17T13:53:35.814Z,97741.13
2023-01-17T13:56:22.515Z,97737.34
2023-01-17T13:58:50.308Z,97730.47
2023-01-17T14:01:22.956Z,97733.94
2023-01-17T14:03:49.470Z,97726.75
2023-01-17T14:06:46.074Z,97735.81
2023-01-17T14:09:12.609Z,97740.44
2023-01-17T14:11:54.150Z,97734.78
2023-01-17T14:14:45.553Z,97733.13
2023-01-17T14:17:28.133Z,97739.81
2023-01-17T14:20:00.274Z,97733.59
2023-01-17T14:22:36.568Z,97736.25
2023-01-17T14:25:11.762Z,97735.66
2023-01-17T14:27:50.471Z,97742.34
2023-01-17T14:30:17.501Z,97742.63
2023-01-17T14:32:59.053Z,97741.22
2023-01-17T14:35:34.803Z,97740.94
2023-01-17T14:38:03.404Z,97738.75
2023-01-17T14:40:33.098Z,97743.50
2023-01-17T14:43:06.927Z,97742.38
2023-01-17T14:45:35.773Z,97743.44
2023-01-17T14:48:14.336Z,97738.31
2023-01-17T14:50:43.542Z,97740.19
2023-01-17T14:53:13.107Z,97736.72
2023-01-17T14:55:48.412Z,97749.09
2023-01-17T14:58:19.598Z,97744.50
2023-01-17T15:00:49.319Z,97755.84
2023-01-17T15:03:16.837Z,97757.19
2023-01-17T15:05:47.207Z,97758.81
2023-01-17T15:08:16.749Z,97763.63
2023-01-17T15:11:05.381Z,97763.84
2023-01-17T15:13:45.234Z,97758.78
2023-01-17T15:16:27.993Z,97757.41
2023-01-17T15:18:55.697Z,97766.56
2023-01-17T15:21:24.832Z,97764.94
2023-01-17T15:24:04.098Z,97770.84
2023-01-17T15:26:34.871Z,97771.44
2023-01-17T15:29:06.577Z,97767.19
2023-01-17T15:31:42.621Z,97775.25
2023-01-17T15:34:16.798Z,97769.97
2023-01-17T15:36:47.733Z,97762.50
2023-01-17T15:39:23.139Z,97770.59
2023-01-17T15:41:54.826Z,97763.09
2023-01-17T15:44:46.392Z,97758.91
2023-01-17T15:47:35.505Z,97764.53
2023-01-17T15:50:21.271Z,97768.88
2023-01-17T15:52:52.728Z,97764.88
2023-01-17T15:55:22.623Z,97777.75
2023-01-17T15:57:49.655Z,97781.53
2023-01-17T16:00:24.141Z,97783.94
2023-01-17T16:02:55.867Z,97789.56
2023-01-17T16:05:23.126Z,97790.13
2023-01-17T16:07:50.858Z,97792.25
2023-01-17T16:10:18.790Z,97798.69
2023-01-17T16:12:46.548Z,97791.19
2023-01-17T16:15:15.346Z,97789.59
2023-01-17T16:17:47.414Z,97792.25
2023-01-17T16:20:19.318Z,97794.41
2023-01-17T16:22:47.328Z,97799.16
2023-01-17T16:25:19.930Z,97794.63
2023-01-17T16:27:47.276Z,97794.34
2023-01-17T16:30:19.416Z,97798.88
2023-01-17T16:32:48.595Z,97798.59
2023-01-17T16:35:20.805Z,97794.31
2023-01-17T16:37:56.013Z,97796.41
2023-01-17T16:40:25.038Z,97811.09
2023-01-17T16:42:51.700Z,97810.78
2023-01-17T16:45:18.953Z,97816.34
2023-01-17T16:47:47.666Z,97810.72
2023-01-17T16:50:16.967Z,97807.75
2023-01-17T16:52:43.529Z,97805.03
2023-01-17T16:55:13.025Z,97814.03
2023-01-17T16:57:39.608Z,97821.97
2023-01-17T17:00:06.801Z,97820.59
2023-01-17T17:02:33.618Z,97829.09
2023-01-17T17:05:00.118Z,97832.16
2023-01-17T17:07:26.766Z,97832.72
2023-01-17T17:09:53.347Z,97830.28
2023-01-17T17:12:19.850Z,97834.25
2023-01-17T17:14:46.336Z,97845.91
2023-01-17T17:17:12.816Z,97833.84
2023-01-17T17:19:39.762Z,97839.16
2023-01-17T17:22:06.724Z,97843.06
2023-01-17T17:24:33.596Z,97844.09
2023-01-17T17:27:00.030Z,97850.47
2023-01-17T17:29:26.626Z,97843.25
2023-01-17T17:31:53.893Z,97849.31
2023-01-17T17:34:20.885Z,97848.75
2023-01-17T17:36:47.448Z,97849.75
2023-01-17T17:41:51.547Z,97851.50
2023-01-17T17:44:18.135Z,97853.06
2023-01-17T17:46:45.753Z,97854.03
2023-01-17T17:49:12.273Z,97852.94
2023-01-17T17:51:40.503Z,97848.91
2023-01-17T17:54:10.185Z,97858.47
2023-01-17T17:56:37.626Z,97852.53
2023-01-17T17:59:06.243Z,97862.06
2023-01-17T18:01:33.144Z,97864.66
2023-01-17T18:04:03.117Z,97865.13
2023-01-17T18:06:30.052Z,97865.31
2023-01-17T18:08:56.713Z,97858.09
2023-01-17T18:11:26.121Z,97859.66
2023-01-17T18:13:54.931Z,97853.69
2023-01-17T18:16:27.750Z,97862.97
2023-01-17T18:18:56.299Z,97861.25
2023-01-17T18:21:25.528Z,97861.41
2023-01-17T18:23:54.126Z,97869.81
2023-01-17T18:26:23.979Z,97870.22
2023-01-17T18:28:55.284Z,97886.84
2023-01-17T18:31:24.077Z,97882.72
2023-01-17T18:33:51.779Z,97891.66
2023-01-17T18:36:18.443Z,97897.69
2023-01-17T18:38:46.758Z,97893.66
2023-01-17T18:41:35.660Z,97893.09
2023-01-17T18:44:05.998Z,97894.63
2023-01-17T18:46:33.533Z,97896.09
2023-01-17T18:49:00.536Z,97900.28
2023-01-17T18:51:29.753Z,97908.25
2023-01-17T18:53:56.364Z,97904.91
2023-01-17T18:56:23.150Z,97906.19
2023-01-17T18:58:50.610Z,97914.91
2023-01-17T19:01:21.143Z,97901.03
2023-01-17T19:03:49.916Z,97908.34
2023-01-17T19:06:24.595Z,97914.22
2023-01-17T19:08:54.369Z,97912.44
2023-01-17T19:11:22.619Z,97911.88
2023-01-17T19:13:50.394Z,97926.91
2023-01-17T19:16:26.489Z,97925.63
2023-01-17T19:18:53.867Z,97921.16
2023-01-17T19:21:22.647Z,97919.81
2023-01-17T19:23:50.620Z,97926.84
2023-01-17T19:26:19.874Z,97929.97
2023-01-17T19:28:48.559Z,97934.69
2023-01-17T19:31:18.597Z,97935.97
2023-01-17T19:33:46.930Z,97935.91
2023-01-17T19:36:18.545Z,97933.47
2023-01-17T19:38:58.708Z,97936.59
2023-01-17T19:41:30.513Z,97939.97
2023-01-17T19:44:02.067Z,97948.38
2023-01-17T19:46:29.247Z,97950.72
2023-01-17T19:48:57.149Z,97952.22
2023-01-17T19:51:24.479Z,97950.25
2023-01-17T19:53:51.259Z,97951.53
2023-01-17T19:56:19.041Z,97954.13
2023-01-17T19:58:46.451Z,97950.97
2023-01-17T20:01:15.940Z,97947.38
2023-01-17T20:03:46.766Z,97958.94
2023-01-17T20:06:15.453Z,97964.91
2023-01-17T20:08:42.078Z,97967.22
2023-01-17T20:11:11.519Z,97977.03
2023-01-17T20:13:38.022Z,97973.94
2023-01-17T20:16:06.900Z,97969.06
2023-01-17T20:18:34.631Z,97971.84
2023-01-17T20:21:08.489Z,97974.50
2023-01-17T20:23:38.433Z,97980.75
2023-01-17T20:26:06.216Z,97979.56
2023-01-17T20:28:35.760Z,97988.56
2023-01-17T20:31:07.779Z,97989.59
2023-01-17T20:33:35.337Z,97993.38
2023-01-17T20:36:10.724Z,97987.84
2023-01-17T20:38:45.162Z,97985.91
2023-01-17T20:41:18.959Z,97990.84
2023-01-17T20:43:48.374Z,97990.84
2023-01-17T20:46:15.708Z,97982.75
2023-01-17T20:48:50.726Z,97983.91
2023-01-17T20:51:19.069Z,97986.91
2023-01-17T20:53:47.170Z,97989.00
2023-01-17T20:56:15.400Z,97990.81
2023-01-17T20:58:42.231Z,97990.44
2023-01-17T21:01:09.644Z,97988.31
2023-01-17T21:03:37.785Z,97996.81
2023-01-17T21:06:10.059Z,98003.59
2023-01-17T21:08:39.412Z,97996.56
2023-01-17T21:11:07.984Z,97994.22
2023-01-17T21:13:35.267Z,98005.25
2023-01-17T21:16:02.589Z,97994.09
2023-01-17T21:18:32.794Z,97998.00
2023-01-17T21:21:12.350Z,98006.06
2023-01-17T21:23:41.586Z,98000.06
2023-01-17T21:26:10.933Z,97999.72
2023-01-17T21:28:39.730Z,98009.72
2023-01-17T21:31:18.162Z,98000.16
2023-01-17T21:33:45.172Z,98012.00
2023-01-17T21:36:12.068Z,98016.94
2023-01-17T21:38:39.123Z,98020.63
2023-01-17T21:41:05.846Z,98020.03
2023-01-17T21:43:32.462Z,98030.03
2023-01-17T21:46:02.908Z,98036.97
2023-01-17T21:48:29.529Z,98036.22
2023-01-17T21:50:56.066Z,98038.88
